Gorgona — IBUW — position and weather

sailwx.info

Track history (hours):
 
Tides and Currents Weather Stations Pressure Air Temp Water Temp Dewpoint Dewpoint Depression Visibility Wind Speed Wind Dir Waves Ship Positions

Gorgona

Last reported at 2017-Oct-19 00:01 UTC. Time now 2017-Oct-19 00:15 UTC.
Position N 43°35' E 010°19'.

Length 75 m; draft 3.5 m.

Type: Tanker. MMSI: 247164900.

Date/timePositionNaut miles runAvg speedWind from/ knotsBaromVisibWave heightAir tempDewpointWater temp
2017-Oct-19 00:01N 43°35' E 010°19'0 0.0
2017-Oct-18 23:30N 43°35' E 010°19'0 0.0
2017-Oct-18 23:00N 43°35' E 010°19'0 0.0
2017-Oct-18 22:30N 43°35' E 010°19'0 0.0
2017-Oct-18 22:00N 43°35' E 010°19'0 0.0
2017-Oct-18 21:30N 43°35' E 010°19'0 0.0
2017-Oct-18 21:00N 43°35' E 010°19'0 0.0
2017-Oct-18 20:30N 43°35' E 010°19'0 0.0
2017-Oct-18 20:00N 43°35' E 010°19'0 0.0
2017-Oct-18 19:30N 43°35' E 010°19'0 0.0
2017-Oct-18 19:00N 43°35' E 010°19'0 0.0
2017-Oct-18 18:30N 43°35' E 010°19'0 0.0
2017-Oct-18 18:01N 43°35' E 010°19'0 0.0
2017-Oct-18 17:30N 43°35' E 010°19'0 1.0
2017-Oct-18 17:00N 43°35' E 010°19'4 8.7
2017-Oct-18 16:30N 43°31' E 010°15'4 9.1
2017-Oct-18 16:01N 43°30' E 010°09'4 7.4
2017-Oct-18 15:31N 43°33' E 010°06'5 9.4
2017-Oct-18 15:00N 43°38' E 010°07'9 9.5
2017-Oct-18 14:00N 43°47' E 010°02'5 9.5
2017-Oct-18 13:30N 43°51' E 009°59'5 9.5
2017-Oct-18 13:00N 43°55' E 009°57'5 9.3
2017-Oct-18 12:30N 43°60' E 009°54'5 9.2
2017-Oct-18 12:00N 44°04' E 009°51'3 5.3
2017-Oct-18 11:30N 44°06' E 009°51'0 0.0
2017-Oct-18 10:57N 44°06' E 009°51'0 0.0
2017-Oct-18 10:27N 44°06' E 009°51'0 0.0
2017-Oct-18 10:00N 44°06' E 009°51'0 0.0
2017-Oct-18 09:30N 44°06' E 009°51'0 0.0
2017-Oct-18 09:00N 44°06' E 009°51'0 0.0
2017-Oct-18 08:30N 44°06' E 009°51'0 0.0
2017-Oct-18 08:00N 44°06' E 009°51'0 0.0
2017-Oct-18 07:24N 44°06' E 009°51'0 0.0
2017-Oct-18 07:00N 44°06' E 009°51'0 0.0
2017-Oct-18 06:30N 44°06' E 009°51'0 0.0
2017-Oct-18 05:51N 44°06' E 009°51'0 0.0
2017-Oct-18 05:27N 44°06' E 009°51'0 0.0
2017-Oct-18 04:57N 44°06' E 009°51'0 0.0
2017-Oct-18 04:30N 44°06' E 009°51'0 0.1
2017-Oct-18 04:00N 44°06' E 009°51'2 4.4
2017-Oct-18 03:31N 44°04' E 009°51'2 3.8
2017-Oct-18 03:00N 44°03' E 009°54'0 0.0
2017-Oct-18 02:24N 44°03' E 009°54'0 0.0
2017-Oct-18 02:00N 44°03' E 009°54'0 0.0
2017-Oct-18 01:30N 44°03' E 009°54'0 0.0
2017-Oct-18 01:00N 44°03' E 009°54'0 0.0
2017-Oct-18 00:30N 44°03' E 009°54'0 0.0
2017-Oct-17 23:57N 44°03' E 009°54'0 0.0
2017-Oct-17 23:30N 44°03' E 009°54'0 0.0
2017-Oct-17 23:00N 44°03' E 009°54'0 0.0
2017-Oct-17 22:30N 44°03' E 009°54'0 0.0
2017-Oct-17 22:00N 44°03' E 009°54'0 0.0
2017-Oct-17 21:30N 44°03' E 009°54'0 0.0
2017-Oct-17 21:00N 44°03' E 009°54'0 0.0
2017-Oct-17 20:30N 44°03' E 009°54'0 0.0
2017-Oct-17 20:00N 44°03' E 009°54'0 0.0
2017-Oct-17 19:30N 44°03' E 009°54'0 0.0
2017-Oct-17 19:00N 44°03' E 009°54'0 0.0
2017-Oct-17 18:30N 44°03' E 009°54'0 0.2
2017-Oct-17 18:01N 44°03' E 009°54'4 7.6
2017-Oct-17 17:30N 43°60' E 009°56'4 8.7
2017-Oct-17 17:01N 43°56' E 009°58'4 8.8
2017-Oct-17 16:31N 43°52' E 010°00'4 8.6
2017-Oct-17 16:01N 43°48' E 010°02'4 8.2
2017-Oct-17 15:31N 43°44' E 010°05'4 8.6
2017-Oct-17 15:01N 43°40' E 010°05'5 9.0
2017-Oct-17 14:30N 43°35' E 010°05'4 8.9
2017-Oct-17 14:00N 43°31' E 010°05'4 8.3
2017-Oct-17 13:31N 43°31' E 010°11'4 8.7
2017-Oct-17 13:00N 43°32' E 010°17'3 6.3
2017-Oct-17 12:30N 43°35' E 010°19'0 0.0
2017-Oct-17 12:00N 43°35' E 010°19'0 0.0
2017-Oct-17 11:31N 43°35' E 010°19'0 0.0
2017-Oct-17 10:57N 43°35' E 010°19'0 0.0
2017-Oct-17 10:27N 43°35' E 010°19'0 0.0
2017-Oct-17 10:01N 43°35' E 010°19'0 0.0
2017-Oct-17 09:27N 43°35' E 010°19'0 0.0
2017-Oct-17 09:00N 43°35' E 010°19'0 0.0
2017-Oct-17 08:31N 43°35' E 010°19'0 0.0
2017-Oct-17 08:01N 43°35' E 010°19'0 0.0
2017-Oct-17 07:30N 43°35' E 010°19'0 0.0
2017-Oct-17 07:01N 43°35' E 010°19'1 1.2
2017-Oct-17 06:27N 43°35' E 010°18'0 0.1
2017-Oct-17 06:01N 43°35' E 010°18'0 0.0
2017-Oct-17 05:28N 43°35' E 010°18'0 0.0
2017-Oct-17 05:00N 43°35' E 010°18'0 0.0
2017-Oct-17 04:25N 43°35' E 010°18'0 0.0
2017-Oct-17 04:00N 43°35' E 010°18'0 0.0
2017-Oct-17 03:31N 43°35' E 010°18'0 0.0
2017-Oct-17 03:01N 43°35' E 010°18'0 0.0
2017-Oct-17 02:30N 43°35' E 010°18'0 0.0
2017-Oct-17 01:59N 43°35' E 010°18'0 0.0
2017-Oct-17 01:30N 43°35' E 010°18'0 0.0
2017-Oct-17 01:00N 43°35' E 010°18'0 0.0
2017-Oct-17 00:30N 43°35' E 010°18'0 0.0
2017-Oct-17 00:00N 43°35' E 010°18'0 0.0
2017-Oct-16 23:30N 43°35' E 010°18'0 0.0
2017-Oct-16 22:58N 43°35' E 010°18'0 0.0
2017-Oct-16 22:30N 43°35' E 010°18'0 0.0
2017-Oct-16 22:00N 43°35' E 010°18'0 0.0
2017-Oct-16 21:27N 43°35' E 010°18'0 0.0
2017-Oct-16 20:57N 43°35' E 010°18'0 0.0
2017-Oct-16 20:26N 43°35' E 010°18'0 0.1
2017-Oct-16 19:58N 43°35' E 010°18'0 0.1
2017-Oct-16 19:28N 43°35' E 010°18'0 0.0
2017-Oct-16 19:00N 43°35' E 010°18'0 0.0
2017-Oct-16 18:30N 43°35' E 010°18'0 0.0
2017-Oct-16 18:00N 43°35' E 010°18'0 0.0
2017-Oct-16 17:30N 43°35' E 010°18'0 0.0
2017-Oct-16 17:00N 43°35' E 010°18'0 0.0
2017-Oct-16 16:30N 43°35' E 010°18'0 0.0
2017-Oct-16 15:59N 43°35' E 010°18'0 0.0
2017-Oct-16 15:30N 43°35' E 010°18'0 0.0
2017-Oct-16 15:00N 43°35' E 010°18'0 0.0
2017-Oct-16 14:30N 43°35' E 010°18'0 0.0
2017-Oct-16 13:30N 43°35' E 010°18'0 0.3
2017-Oct-16 13:00N 43°35' E 010°18'1 1.1
2017-Oct-16 12:30N 43°35' E 010°19'0 0.0
2017-Oct-16 12:00N 43°35' E 010°19'0 0.0
2017-Oct-16 11:30N 43°35' E 010°19'1 1.0
2017-Oct-16 10:56N 43°35' E 010°18'0 0.1
2017-Oct-16 10:26N 43°35' E 010°18'0 0.0
2017-Oct-16 10:00N 43°35' E 010°18'0 0.0
2017-Oct-16 09:30N 43°35' E 010°18'0 0.0
2017-Oct-16 09:00N 43°35' E 010°18'0 0.0
2017-Oct-16 08:30N 43°35' E 010°18'0 0.0
2017-Oct-16 08:00N 43°35' E 010°18'0 0.0
2017-Oct-16 07:29N 43°35' E 010°18'0 0.0
2017-Oct-16 06:56N 43°35' E 010°18'0 0.0
2017-Oct-16 06:30N 43°35' E 010°18'0 0.0
2017-Oct-16 06:00N 43°35' E 010°18'0 0.3
2017-Oct-16 05:30N 43°35' E 010°18'0 0.0
2017-Oct-16 05:00N 43°35' E 010°18'0 0.0
2017-Oct-16 04:30N 43°35' E 010°18'0 0.0
2017-Oct-16 04:00N 43°35' E 010°18'0 0.0
2017-Oct-16 03:26N 43°35' E 010°18'0 0.0
2017-Oct-16 02:58N 43°35' E 010°18'0 0.0
2017-Oct-16 02:30N 43°35' E 010°18'0 0.0
2017-Oct-16 01:44N 43°35' E 010°18'0 0.0
2017-Oct-16 01:30N 43°35' E 010°18'0 0.0
2017-Oct-16 00:55N 43°35' E 010°18'0 0.0
2017-Oct-16 00:30N 43°35' E 010°18'0 0.0
2017-Oct-16 00:00N 43°35' E 010°18'0 0.0
2017-Oct-15 23:30N 43°35' E 010°18'0 0.0
2017-Oct-15 23:00N 43°35' E 010°18'0 0.0
2017-Oct-15 22:30N 43°35' E 010°18'0 0.0
2017-Oct-15 22:00N 43°35' E 010°18'0 0.0
2017-Oct-15 21:30N 43°35' E 010°18'0 0.0
2017-Oct-15 20:57N 43°35' E 010°18'0 0.0
2017-Oct-15 20:30N 43°35' E 010°18'0 0.0
2017-Oct-15 20:00N 43°35' E 010°18'0 0.0
2017-Oct-15 19:30N 43°35' E 010°18'0 0.0
2017-Oct-15 19:00N 43°35' E 010°18'0 0.0
2017-Oct-15 18:30N 43°35' E 010°18'0 0.0
2017-Oct-15 18:00N 43°35' E 010°18'0 0.0
2017-Oct-15 17:30N 43°35' E 010°18'0 0.0
2017-Oct-15 17:00N 43°35' E 010°18'0 0.0
2017-Oct-15 16:30N 43°35' E 010°18'0 0.0
2017-Oct-15 16:00N 43°35' E 010°18'0 0.0
2017-Oct-15 15:30N 43°35' E 010°18'0 0.0
2017-Oct-15 14:57N 43°35' E 010°18'0 0.0
2017-Oct-15 14:00N 43°35' E 010°18'0 0.0
2017-Oct-15 13:30N 43°35' E 010°18'0 0.0
2017-Oct-15 13:00N 43°35' E 010°18'0 0.0
2017-Oct-15 12:30N 43°35' E 010°18'0 0.0
2017-Oct-15 12:00N 43°35' E 010°18'0 0.0
2017-Oct-15 11:29N 43°35' E 010°18'0 0.0
2017-Oct-15 11:00N 43°35' E 010°18'0 0.0
2017-Oct-15 10:30N 43°35' E 010°18'0 0.0
2017-Oct-15 10:00N 43°35' E 010°18'0 0.0
2017-Oct-15 09:30N 43°35' E 010°18'0 0.0
2017-Oct-15 09:00N 43°35' E 010°18'0 0.0
2017-Oct-15 08:30N 43°35' E 010°18'0 0.0
2017-Oct-15 08:00N 43°35' E 010°18'0 0.0
2017-Oct-15 07:30N 43°35' E 010°18'0 0.0
2017-Oct-15 07:00N 43°35' E 010°18'0 0.0
2017-Oct-15 06:29N 43°35' E 010°18'0 0.0
2017-Oct-15 06:00N 43°35' E 010°18'0 0.0
2017-Oct-15 05:30N 43°35' E 010°18'0 0.0
2017-Oct-15 05:00N 43°35' E 010°18'0 0.0
2017-Oct-15 04:30N 43°35' E 010°18'0 0.0
2017-Oct-15 04:00N 43°35' E 010°18'0 0.0
2017-Oct-15 03:30N 43°35' E 010°18'0 0.0
2017-Oct-15 03:00N 43°35' E 010°18'0 0.0
2017-Oct-15 02:30N 43°35' E 010°18'0 0.0
2017-Oct-15 02:00N 43°35' E 010°18'0 0.0
2017-Oct-15 01:30N 43°35' E 010°18'0 0.0
2017-Oct-15 01:00N 43°35' E 010°18'0 0.0
2017-Oct-15 00:30N 43°35' E 010°18'0 0.0
2017-Oct-15 00:00N 43°35' E 010°18'0 0.0
2017-Oct-14 23:30N 43°35' E 010°18'0 0.0
2017-Oct-14 23:00N 43°35' E 010°18'0 0.0
2017-Oct-14 22:30N 43°35' E 010°18'0 0.0
2017-Oct-14 22:00N 43°35' E 010°18'0 0.0
2017-Oct-14 21:30N 43°35' E 010°18'0 0.0
2017-Oct-14 21:00N 43°35' E 010°18'0 0.0
2017-Oct-14 20:30N 43°35' E 010°18'0 0.0
2017-Oct-14 19:56N 43°35' E 010°18'0 0.0
2017-Oct-14 19:30N 43°35' E 010°18'0 0.0
2017-Oct-14 19:00N 43°35' E 010°18'0 0.0
2017-Oct-14 18:26N 43°35' E 010°18'0 0.0
2017-Oct-14 18:00N 43°35' E 010°18'0 0.0
2017-Oct-14 17:30N 43°35' E 010°18'0 0.0
2017-Oct-14 16:57N 43°35' E 010°18'0 0.0
2017-Oct-14 16:30N 43°35' E 010°18'0 0.0
2017-Oct-14 15:59N 43°35' E 010°18'0 0.0
2017-Oct-14 15:30N 43°35' E 010°18'0 0.0
2017-Oct-14 15:00N 43°35' E 010°18'0 0.0
2017-Oct-14 14:30N 43°35' E 010°18'0 0.0
2017-Oct-14 14:00N 43°35' E 010°18'0 0.0
2017-Oct-14 13:30N 43°35' E 010°18'0 0.0
2017-Oct-14 13:00N 43°35' E 010°18'0 0.0
2017-Oct-14 12:30N 43°35' E 010°18'0 0.0
2017-Oct-14 12:00N 43°35' E 010°18'0 0.0
2017-Oct-14 11:30N 43°35' E 010°18'0 0.0
2017-Oct-14 10:55N 43°35' E 010°18'0 0.0
2017-Oct-14 10:30N 43°35' E 010°18'0 0.0
2017-Oct-14 10:00N 43°35' E 010°18'0 0.0
2017-Oct-14 09:27N 43°35' E 010°18'1 1.6
2017-Oct-14 09:00N 43°35' E 010°19'0 0.0
2017-Oct-14 08:30N 43°35' E 010°19'0 0.0
2017-Oct-14 08:00N 43°35' E 010°19'0 0.0
2017-Oct-14 07:30N 43°35' E 010°19'0 0.0
2017-Oct-14 07:00N 43°35' E 010°19'0 0.0
2017-Oct-14 06:30N 43°35' E 010°19'0 0.0
2017-Oct-14 06:00N 43°35' E 010°19'0 0.0
2017-Oct-14 05:30N 43°35' E 010°19'0 0.0
2017-Oct-14 05:00N 43°35' E 010°19'0 0.0
2017-Oct-14 04:30N 43°35' E 010°19'0 0.0
2017-Oct-14 04:00N 43°35' E 010°19'0 0.0
2017-Oct-14 03:30N 43°35' E 010°19'0 0.0
2017-Oct-14 03:00N 43°35' E 010°19'0 0.0
2017-Oct-14 02:30N 43°35' E 010°19'0 0.0
2017-Oct-14 02:00N 43°35' E 010°19'0 0.0
2017-Oct-14 01:30N 43°35' E 010°19'0 0.0
2017-Oct-14 00:57N 43°35' E 010°19'0 0.0
2017-Oct-14 00:30N 43°35' E 010°19'0 0.0
2017-Oct-14 00:00N 43°35' E 010°19'0 0.0
2017-Oct-13 23:30N 43°35' E 010°19'0 0.0
2017-Oct-13 22:56N 43°35' E 010°19'0 0.0
2017-Oct-13 22:30N 43°35' E 010°19'0 0.0
2017-Oct-13 22:00N 43°35' E 010°19'0 0.0
2017-Oct-13 21:30N 43°35' E 010°19'0 0.0
2017-Oct-13 21:00N 43°35' E 010°19'0 0.0
2017-Oct-13 20:30N 43°35' E 010°19'0 0.0
2017-Oct-13 20:00N 43°35' E 010°19'0 0.0
2017-Oct-13 19:28N 43°35' E 010°19'0 0.0
2017-Oct-13 19:00N 43°35' E 010°19'0 0.0
2017-Oct-13 18:27N 43°35' E 010°19'0 0.0
2017-Oct-13 17:58N 43°35' E 010°19'0 0.0
2017-Oct-13 17:27N 43°35' E 010°19'0 0.0
2017-Oct-13 17:00N 43°35' E 010°19'0 0.0
2017-Oct-13 16:30N 43°35' E 010°19'0 0.0
2017-Oct-13 16:00N 43°35' E 010°19'0 0.0
2017-Oct-13 15:30N 43°35' E 010°19'0 0.0
2017-Oct-13 15:00N 43°35' E 010°19'0 0.0
2017-Oct-13 14:27N 43°35' E 010°19'0 0.0
2017-Oct-13 14:00N 43°35' E 010°19'0 0.0
2017-Oct-13 13:29N 43°35' E 010°19'0 0.0
2017-Oct-13 13:00N 43°35' E 010°19'0 0.0
2017-Oct-13 12:30N 43°35' E 010°19'0 0.0
2017-Oct-13 12:00N 43°35' E 010°19'0 0.0
2017-Oct-13 11:30N 43°35' E 010°19'0 0.0
2017-Oct-13 11:00N 43°35' E 010°19'0 0.0
2017-Oct-13 10:30N 43°35' E 010°19'1 2.4
2017-Oct-13 10:00N 43°34' E 010°18'1 1.4
2017-Oct-13 09:30N 43°33' E 010°18'0 0.0
2017-Oct-13 09:00N 43°33' E 010°18'0 0.0
2017-Oct-13 08:30N 43°33' E 010°18'0 0.0
2017-Oct-13 08:00N 43°33' E 010°18'0 0.0
2017-Oct-13 07:30N 43°33' E 010°18'0 0.0
2017-Oct-13 07:00N 43°33' E 010°18'0 0.0
2017-Oct-13 06:30N 43°33' E 010°18'0 0.0
2017-Oct-13 06:00N 43°33' E 010°18'0 0.0
2017-Oct-13 05:30N 43°33' E 010°18'0 0.0
2017-Oct-13 05:00N 43°33' E 010°18'0 0.0
2017-Oct-13 04:30N 43°33' E 010°18'0 0.0
2017-Oct-13 04:00N 43°33' E 010°18'0 0.0
2017-Oct-13 03:30N 43°33' E 010°18'0 0.0
2017-Oct-13 03:00N 43°33' E 010°18'0 0.0
2017-Oct-13 02:30N 43°33' E 010°18'0 0.0
2017-Oct-13 02:00N 43°33' E 010°18'0 0.0
2017-Oct-13 01:30N 43°33' E 010°18'0 0.0
2017-Oct-13 01:00N 43°33' E 010°18'0 0.0
2017-Oct-13 00:30N 43°33' E 010°18'0 0.0
2017-Oct-13 00:00N 43°33' E 010°18'0 0.0
2017-Oct-12 23:30N 43°33' E 010°18'0 0.0
2017-Oct-12 22:58N 43°33' E 010°18'0 0.0
2017-Oct-12 22:30N 43°33' E 010°18'0 0.0
2017-Oct-12 22:00N 43°33' E 010°18'0 0.0
2017-Oct-12 21:28N 43°33' E 010°18'0 0.0
2017-Oct-12 21:00N 43°33' E 010°18'0 0.0
2017-Oct-12 20:30N 43°33' E 010°18'0 0.0
2017-Oct-12 19:59N 43°33' E 010°18'0 0.0
2017-Oct-12 19:30N 43°33' E 010°18'0 0.0
2017-Oct-12 19:00N 43°33' E 010°18'0 0.0
2017-Oct-12 18:30N 43°33' E 010°18'0 0.0
2017-Oct-12 18:00N 43°33' E 010°18'0 0.0
2017-Oct-12 17:26N 43°33' E 010°18'0 0.0
2017-Oct-12 17:00N 43°33' E 010°18'0 0.0
2017-Oct-12 16:30N 43°33' E 010°18'0 0.0
2017-Oct-12 15:58N 43°33' E 010°18'0 0.0
2017-Oct-12 15:27N 43°33' E 010°18'1 2.1
2017-Oct-12 15:00N 43°34' E 010°18'0 0.0
2017-Oct-12 14:30N 43°34' E 010°18'0 0.0
2017-Oct-12 14:00N 43°34' E 010°18'1 0.1
2017-Oct-12 07:32N 43°33' E 010°18'0 0.3
2017-Oct-12 07:30N 43°33' E 010°18'0 0.0
2017-Oct-12 06:57N 43°33' E 010°18'0 0.0
2017-Oct-12 06:30N 43°33' E 010°18'0 0.0
2017-Oct-12 06:00N 43°33' E 010°18'0 0.0
2017-Oct-12 05:30N 43°33' E 010°18'0 0.0
2017-Oct-12 05:00N 43°33' E 010°18'0 0.0
2017-Oct-12 04:30N 43°33' E 010°18'0 0.0
2017-Oct-12 04:00N 43°33' E 010°18'0 0.0
2017-Oct-12 03:30N 43°33' E 010°18'0 0.0
2017-Oct-12 03:00N 43°33' E 010°18'0 0.0
2017-Oct-12 02:30N 43°33' E 010°18'0 0.0
2017-Oct-12 02:00N 43°33' E 010°18'0 0.0
2017-Oct-12 01:30N 43°33' E 010°18'0 0.0
2017-Oct-12 01:00N 43°33' E 010°18'0 0.0
2017-Oct-12 00:30N 43°33' E 010°18'0 0.0
2017-Oct-11 23:59N 43°33' E 010°18'0 0.0
2017-Oct-11 23:30N 43°33' E 010°18'0 0.0
2017-Oct-11 23:00N 43°33' E 010°18'0 0.0
2017-Oct-11 22:30N 43°33' E 010°18'0 0.0
2017-Oct-11 22:00N 43°33' E 010°18'0 0.0
2017-Oct-11 21:30N 43°33' E 010°18'0 0.0
2017-Oct-11 21:00N 43°33' E 010°18'0 0.0
2017-Oct-11 20:30N 43°33' E 010°18'0 0.0
2017-Oct-11 20:00N 43°33' E 010°18'0 0.0
2017-Oct-11 19:30N 43°33' E 010°18'0 0.0
2017-Oct-11 19:00N 43°33' E 010°18'0 0.0
2017-Oct-11 18:30N 43°33' E 010°18'0 0.0
2017-Oct-11 18:00N 43°33' E 010°18'0 0.0
2017-Oct-11 17:30N 43°33' E 010°18'0 0.0
2017-Oct-11 17:00N 43°33' E 010°18'0 0.0
2017-Oct-11 00:00N 43°33' E 010°18'0 0.0
2017-Oct-10 23:30N 43°33' E 010°18'0 0.0
2017-Oct-10 23:00N 43°33' E 010°18'0 0.0
2017-Oct-10 22:30N 43°33' E 010°18'0 0.0
2017-Oct-10 22:00N 43°33' E 010°18'1 1.5
2017-Oct-10 21:30N 43°34' E 010°18'1 2.1
2017-Oct-10 21:00N 43°35' E 010°19'0 0.0
2017-Oct-10 20:30N 43°35' E 010°19'0 0.0
2017-Oct-10 20:00N 43°35' E 010°19'0 0.0
2017-Oct-10 19:30N 43°35' E 010°19'0 0.0
2017-Oct-10 19:00N 43°35' E 010°19'0 0.0
2017-Oct-10 18:30N 43°35' E 010°19'0 0.0
2017-Oct-10 18:00N 43°35' E 010°19'0 0.2
2017-Oct-10 17:27N 43°35' E 010°19'0 0.0
2017-Oct-10 16:59N 43°35' E 010°19'0 0.0
2017-Oct-10 16:26N 43°35' E 010°19'0 0.0
2017-Oct-10 16:00N 43°35' E 010°19'0 0.2
2017-Oct-10 15:30N 43°35' E 010°19'0 0.0
2017-Oct-10 15:00N 43°35' E 010°19'0 0.1
2017-Oct-10 14:00N 43°35' E 010°19'2 4.2
2017-Oct-10 13:30N 43°33' E 010°18'0 0.9
2017-Oct-10 13:00N 43°33' E 010°18'0 0.0
2017-Oct-10 12:30N 43°33' E 010°18'0 0.0
2017-Oct-10 12:00N 43°33' E 010°18'0 0.0
2017-Oct-10 11:30N 43°33' E 010°18'0 0.0
2017-Oct-10 11:00N 43°33' E 010°18'0 0.0
2017-Oct-10 10:30N 43°33' E 010°18'0 0.0
2017-Oct-10 10:00N 43°33' E 010°18'0 0.0
2017-Oct-10 09:30N 43°33' E 010°18'0 0.0
2017-Oct-10 09:00N 43°33' E 010°18'0 0.0
2017-Oct-10 08:30N 43°33' E 010°18'0 0.9
2017-Oct-10 08:00N 43°33' E 010°18'2 3.3
2017-Oct-10 07:28N 43°35' E 010°19'0 0.0
2017-Oct-10 07:00N 43°35' E 010°19'0 0.0
2017-Oct-10 06:30N 43°35' E 010°19'0 0.0
2017-Oct-10 06:00N 43°35' E 010°19'0 0.7
2017-Oct-10 05:28N 43°34' E 010°19'1 2.4
2017-Oct-10 05:00N 43°33' E 010°18'0 0.0
2017-Oct-10 04:30N 43°33' E 010°18'0 0.0
2017-Oct-10 04:00N 43°33' E 010°18'0 0.0
2017-Oct-10 03:30N 43°33' E 010°18'0 0.0
2017-Oct-10 03:00N 43°33' E 010°18'0 0.0
2017-Oct-10 02:30N 43°33' E 010°18'0 0.0
2017-Oct-10 02:00N 43°33' E 010°18'0 0.0
2017-Oct-10 01:30N 43°33' E 010°18'0 0.0
2017-Oct-10 01:00N 43°33' E 010°18'0 0.0
2017-Oct-10 00:30N 43°33' E 010°18'0 0.0
2017-Oct-10 00:00N 43°33' E 010°18'0 0.0
2017-Oct-09 23:30N 43°33' E 010°18'0 0.0
2017-Oct-09 23:00N 43°33' E 010°18'0 0.0
2017-Oct-09 22:30N 43°33' E 010°18'0 0.0
2017-Oct-09 22:00N 43°33' E 010°18'0 0.0
2017-Oct-09 21:30N 43°33' E 010°18'0 0.0
2017-Oct-09 21:00N 43°33' E 010°18'0 0.0
2017-Oct-09 20:30N 43°33' E 010°18'0 0.0
2017-Oct-09 20:00N 43°33' E 010°18'1 2.8
2017-Oct-09 19:30N 43°35' E 010°18'0 0.0
2017-Oct-09 19:00N 43°35' E 010°18'0 0.0
2017-Oct-09 18:30N 43°35' E 010°18'0 0.0
2017-Oct-09 18:00N 43°35' E 010°18'0 1.0
2017-Oct-09 17:30N 43°34' E 010°18'0 0.0
2017-Oct-09 17:00N 43°34' E 010°18'0 0.0
2017-Oct-09 16:30N 43°34' E 010°18'0 0.1
2017-Oct-09 16:01N 43°34' E 010°18'0 0.5
2017-Oct-09 15:30N 43°34' E 010°19'0 0.0
2017-Oct-09 15:00N 43°34' E 010°19'0 0.0
2017-Oct-09 14:30N 43°34' E 010°19'0 0.0
2017-Oct-09 14:00N 43°34' E 010°19'0 0.0
2017-Oct-09 13:30N 43°34' E 010°19'1 1.6
2017-Oct-09 13:00N 43°35' E 010°19'0 0.0
2017-Oct-09 12:30N 43°35' E 010°19'0 0.0
2017-Oct-09 12:00N 43°35' E 010°19'0 0.0
2017-Oct-09 11:30N 43°35' E 010°19'0 0.0
2017-Oct-09 11:00N 43°35' E 010°19'0 0.0
2017-Oct-09 10:30N 43°35' E 010°19'0 0.0
2017-Oct-09 10:00N 43°35' E 010°19'0 0.0
2017-Oct-09 09:30N 43°35' E 010°19'0 0.0
2017-Oct-09 09:00N 43°35' E 010°19'0 0.0
2017-Oct-09 08:30N 43°35' E 010°19'0 0.0
2017-Oct-09 08:00N 43°35' E 010°19'0 0.0
2017-Oct-09 07:30N 43°35' E 010°19'0 0.0
2017-Oct-09 06:56N 43°35' E 010°19'0 0.3
2017-Oct-09 06:28N 43°35' E 010°19'2 3.9
2017-Oct-09 06:00N 43°33' E 010°18'0 0.0
2017-Oct-09 05:30N 43°33' E 010°18'0 0.0
2017-Oct-09 05:00N 43°33' E 010°18'0 0.0
2017-Oct-09 04:30N 43°33' E 010°18'0 0.0
2017-Oct-09 03:59N 43°33' E 010°18'0 0.0
2017-Oct-09 03:30N 43°33' E 010°18'0 0.0
2017-Oct-09 02:59N 43°33' E 010°18'0 0.0
2017-Oct-09 02:30N 43°33' E 010°18'0 0.0
2017-Oct-09 01:58N 43°33' E 010°18'0 0.0
2017-Oct-09 01:30N 43°33' E 010°18'0 0.0
2017-Oct-09 00:59N 43°33' E 010°18'0 0.0
2017-Oct-09 00:30N 43°33' E 010°18'  
Track history (hours):
 
Tides and Currents Weather Stations Pressure Air Temp Water Temp Dewpoint Dewpoint Depression Visibility Wind Speed Wind Dir Waves Ship Positions

Gorgona

Last reported at 2017-Oct-19 00:01 UTC. Time now 2017-Oct-19 00:15 UTC.
Position N 43°35' E 010°19'.

Length 75 m; draft 3.5 m.

Type: Tanker. MMSI: 247164900.

Date/timePositionNaut miles runAvg speedWind from/ knotsBaromVisibWave heightAir tempDewpointWater temp
2017-Oct-19 00:01N 43°35' E 010°19'0 0.0
2017-Oct-18 23:30N 43°35' E 010°19'0 0.0
2017-Oct-18 23:00N 43°35' E 010°19'0 0.0
2017-Oct-18 22:30N 43°35' E 010°19'0 0.0
2017-Oct-18 22:00N 43°35' E 010°19'0 0.0
2017-Oct-18 21:30N 43°35' E 010°19'0 0.0
2017-Oct-18 21:00N 43°35' E 010°19'0 0.0
2017-Oct-18 20:30N 43°35' E 010°19'0 0.0
2017-Oct-18 20:00N 43°35' E 010°19'0 0.0
2017-Oct-18 19:30N 43°35' E 010°19'0 0.0
2017-Oct-18 19:00N 43°35' E 010°19'0 0.0
2017-Oct-18 18:30N 43°35' E 010°19'0 0.0
2017-Oct-18 18:01N 43°35' E 010°19'0 0.0
2017-Oct-18 17:30N 43°35' E 010°19'0 1.0
2017-Oct-18 17:00N 43°35' E 010°19'4 8.7
2017-Oct-18 16:30N 43°31' E 010°15'4 9.1
2017-Oct-18 16:01N 43°30' E 010°09'4 7.4
2017-Oct-18 15:31N 43°33' E 010°06'5 9.4
2017-Oct-18 15:00N 43°38' E 010°07'9 9.5
2017-Oct-18 14:00N 43°47' E 010°02'5 9.5
2017-Oct-18 13:30N 43°51' E 009°59'5 9.5
2017-Oct-18 13:00N 43°55' E 009°57'5 9.3
2017-Oct-18 12:30N 43°60' E 009°54'5 9.2
2017-Oct-18 12:00N 44°04' E 009°51'3 5.3
2017-Oct-18 11:30N 44°06' E 009°51'0 0.0
2017-Oct-18 10:57N 44°06' E 009°51'0 0.0
2017-Oct-18 10:27N 44°06' E 009°51'0 0.0
2017-Oct-18 10:00N 44°06' E 009°51'0 0.0
2017-Oct-18 09:30N 44°06' E 009°51'0 0.0
2017-Oct-18 09:00N 44°06' E 009°51'0 0.0
2017-Oct-18 08:30N 44°06' E 009°51'0 0.0
2017-Oct-18 08:00N 44°06' E 009°51'0 0.0
2017-Oct-18 07:24N 44°06' E 009°51'0 0.0
2017-Oct-18 07:00N 44°06' E 009°51'0 0.0
2017-Oct-18 06:30N 44°06' E 009°51'0 0.0
2017-Oct-18 05:51N 44°06' E 009°51'0 0.0
2017-Oct-18 05:27N 44°06' E 009°51'0 0.0
2017-Oct-18 04:57N 44°06' E 009°51'0 0.0
2017-Oct-18 04:30N 44°06' E 009°51'0 0.1
2017-Oct-18 04:00N 44°06' E 009°51'2 4.4
2017-Oct-18 03:31N 44°04' E 009°51'2 3.8
2017-Oct-18 03:00N 44°03' E 009°54'0 0.0
2017-Oct-18 02:24N 44°03' E 009°54'0 0.0
2017-Oct-18 02:00N 44°03' E 009°54'0 0.0
2017-Oct-18 01:30N 44°03' E 009°54'0 0.0
2017-Oct-18 01:00N 44°03' E 009°54'0 0.0
2017-Oct-18 00:30N 44°03' E 009°54'0 0.0
2017-Oct-17 23:57N 44°03' E 009°54'0 0.0
2017-Oct-17 23:30N 44°03' E 009°54'0 0.0
2017-Oct-17 23:00N 44°03' E 009°54'0 0.0
2017-Oct-17 22:30N 44°03' E 009°54'0 0.0
2017-Oct-17 22:00N 44°03' E 009°54'0 0.0
2017-Oct-17 21:30N 44°03' E 009°54'0 0.0
2017-Oct-17 21:00N 44°03' E 009°54'0 0.0
2017-Oct-17 20:30N 44°03' E 009°54'0 0.0
2017-Oct-17 20:00N 44°03' E 009°54'0 0.0
2017-Oct-17 19:30N 44°03' E 009°54'0 0.0
2017-Oct-17 19:00N 44°03' E 009°54'0 0.0
2017-Oct-17 18:30N 44°03' E 009°54'0 0.2
2017-Oct-17 18:01N 44°03' E 009°54'4 7.6
2017-Oct-17 17:30N 43°60' E 009°56'4 8.7
2017-Oct-17 17:01N 43°56' E 009°58'4 8.8
2017-Oct-17 16:31N 43°52' E 010°00'4 8.6
2017-Oct-17 16:01N 43°48' E 010°02'4 8.2
2017-Oct-17 15:31N 43°44' E 010°05'4 8.6
2017-Oct-17 15:01N 43°40' E 010°05'5 9.0
2017-Oct-17 14:30N 43°35' E 010°05'4 8.9
2017-Oct-17 14:00N 43°31' E 010°05'4 8.3
2017-Oct-17 13:31N 43°31' E 010°11'4 8.7
2017-Oct-17 13:00N 43°32' E 010°17'3 6.3
2017-Oct-17 12:30N 43°35' E 010°19'0 0.0
2017-Oct-17 12:00N 43°35' E 010°19'0 0.0
2017-Oct-17 11:31N 43°35' E 010°19'0 0.0
2017-Oct-17 10:57N 43°35' E 010°19'0 0.0
2017-Oct-17 10:27N 43°35' E 010°19'0 0.0
2017-Oct-17 10:01N 43°35' E 010°19'0 0.0
2017-Oct-17 09:27N 43°35' E 010°19'0 0.0
2017-Oct-17 09:00N 43°35' E 010°19'0 0.0
2017-Oct-17 08:31N 43°35' E 010°19'0 0.0
2017-Oct-17 08:01N 43°35' E 010°19'0 0.0
2017-Oct-17 07:30N 43°35' E 010°19'0 0.0
2017-Oct-17 07:01N 43°35' E 010°19'1 1.2
2017-Oct-17 06:27N 43°35' E 010°18'0 0.1
2017-Oct-17 06:01N 43°35' E 010°18'0 0.0
2017-Oct-17 05:28N 43°35' E 010°18'0 0.0
2017-Oct-17 05:00N 43°35' E 010°18'0 0.0
2017-Oct-17 04:25N 43°35' E 010°18'0 0.0
2017-Oct-17 04:00N 43°35' E 010°18'0 0.0
2017-Oct-17 03:31N 43°35' E 010°18'0 0.0
2017-Oct-17 03:01N 43°35' E 010°18'0 0.0
2017-Oct-17 02:30N 43°35' E 010°18'0 0.0
2017-Oct-17 01:59N 43°35' E 010°18'0 0.0
2017-Oct-17 01:30N 43°35' E 010°18'0 0.0
2017-Oct-17 01:00N 43°35' E 010°18'0 0.0
2017-Oct-17 00:30N 43°35' E 010°18'0 0.0
2017-Oct-17 00:00N 43°35' E 010°18'0 0.0
2017-Oct-16 23:30N 43°35' E 010°18'0 0.0
2017-Oct-16 22:58N 43°35' E 010°18'0 0.0
2017-Oct-16 22:30N 43°35' E 010°18'0 0.0
2017-Oct-16 22:00N 43°35' E 010°18'0 0.0
2017-Oct-16 21:27N 43°35' E 010°18'0 0.0
2017-Oct-16 20:57N 43°35' E 010°18'0 0.0
2017-Oct-16 20:26N 43°35' E 010°18'0 0.1
2017-Oct-16 19:58N 43°35' E 010°18'0 0.1
2017-Oct-16 19:28N 43°35' E 010°18'0 0.0
2017-Oct-16 19:00N 43°35' E 010°18'0 0.0
2017-Oct-16 18:30N 43°35' E 010°18'0 0.0
2017-Oct-16 18:00N 43°35' E 010°18'0 0.0
2017-Oct-16 17:30N 43°35' E 010°18'0 0.0
2017-Oct-16 17:00N 43°35' E 010°18'0 0.0
2017-Oct-16 16:30N 43°35' E 010°18'0 0.0
2017-Oct-16 15:59N 43°35' E 010°18'0 0.0
2017-Oct-16 15:30N 43°35' E 010°18'0 0.0
2017-Oct-16 15:00N 43°35' E 010°18'0 0.0
2017-Oct-16 14:30N 43°35' E 010°18'0 0.0
2017-Oct-16 13:30N 43°35' E 010°18'0 0.3
2017-Oct-16 13:00N 43°35' E 010°18'1 1.1
2017-Oct-16 12:30N 43°35' E 010°19'0 0.0
2017-Oct-16 12:00N 43°35' E 010°19'0 0.0
2017-Oct-16 11:30N 43°35' E 010°19'1 1.0
2017-Oct-16 10:56N 43°35' E 010°18'0 0.1
2017-Oct-16 10:26N 43°35' E 010°18'0 0.0
2017-Oct-16 10:00N 43°35' E 010°18'0 0.0
2017-Oct-16 09:30N 43°35' E 010°18'0 0.0
2017-Oct-16 09:00N 43°35' E 010°18'0 0.0
2017-Oct-16 08:30N 43°35' E 010°18'0 0.0
2017-Oct-16 08:00N 43°35' E 010°18'0 0.0
2017-Oct-16 07:29N 43°35' E 010°18'0 0.0
2017-Oct-16 06:56N 43°35' E 010°18'0 0.0
2017-Oct-16 06:30N 43°35' E 010°18'0 0.0
2017-Oct-16 06:00N 43°35' E 010°18'0 0.3
2017-Oct-16 05:30N 43°35' E 010°18'0 0.0
2017-Oct-16 05:00N 43°35' E 010°18'0 0.0
2017-Oct-16 04:30N 43°35' E 010°18'0 0.0
2017-Oct-16 04:00N 43°35' E 010°18'0 0.0
2017-Oct-16 03:26N 43°35' E 010°18'0 0.0
2017-Oct-16 02:58N 43°35' E 010°18'0 0.0
2017-Oct-16 02:30N 43°35' E 010°18'0 0.0
2017-Oct-16 01:44N 43°35' E 010°18'0 0.0
2017-Oct-16 01:30N 43°35' E 010°18'0 0.0
2017-Oct-16 00:55N 43°35' E 010°18'0 0.0
2017-Oct-16 00:30N 43°35' E 010°18'0 0.0
2017-Oct-16 00:00N 43°35' E 010°18'0 0.0
2017-Oct-15 23:30N 43°35' E 010°18'0 0.0
2017-Oct-15 23:00N 43°35' E 010°18'0 0.0
2017-Oct-15 22:30N 43°35' E 010°18'0 0.0
2017-Oct-15 22:00N 43°35' E 010°18'0 0.0
2017-Oct-15 21:30N 43°35' E 010°18'0 0.0
2017-Oct-15 20:57N 43°35' E 010°18'0 0.0
2017-Oct-15 20:30N 43°35' E 010°18'0 0.0
2017-Oct-15 20:00N 43°35' E 010°18'0 0.0
2017-Oct-15 19:30N 43°35' E 010°18'0 0.0
2017-Oct-15 19:00N 43°35' E 010°18'0 0.0
2017-Oct-15 18:30N 43°35' E 010°18'0 0.0
2017-Oct-15 18:00N 43°35' E 010°18'0 0.0
2017-Oct-15 17:30N 43°35' E 010°18'0 0.0
2017-Oct-15 17:00N 43°35' E 010°18'0 0.0
2017-Oct-15 16:30N 43°35' E 010°18'0 0.0
2017-Oct-15 16:00N 43°35' E 010°18'0 0.0
2017-Oct-15 15:30N 43°35' E 010°18'0 0.0
2017-Oct-15 14:57N 43°35' E 010°18'0 0.0
2017-Oct-15 14:00N 43°35' E 010°18'0 0.0
2017-Oct-15 13:30N 43°35' E 010°18'0 0.0
2017-Oct-15 13:00N 43°35' E 010°18'0 0.0
2017-Oct-15 12:30N 43°35' E 010°18'0 0.0
2017-Oct-15 12:00N 43°35' E 010°18'0 0.0
2017-Oct-15 11:29N 43°35' E 010°18'0 0.0
2017-Oct-15 11:00N 43°35' E 010°18'0 0.0
2017-Oct-15 10:30N 43°35' E 010°18'0 0.0
2017-Oct-15 10:00N 43°35' E 010°18'0 0.0
2017-Oct-15 09:30N 43°35' E 010°18'0 0.0
2017-Oct-15 09:00N 43°35' E 010°18'0 0.0
2017-Oct-15 08:30N 43°35' E 010°18'0 0.0
2017-Oct-15 08:00N 43°35' E 010°18'0 0.0
2017-Oct-15 07:30N 43°35' E 010°18'0 0.0
2017-Oct-15 07:00N 43°35' E 010°18'0 0.0
2017-Oct-15 06:29N 43°35' E 010°18'0 0.0
2017-Oct-15 06:00N 43°35' E 010°18'0 0.0
2017-Oct-15 05:30N 43°35' E 010°18'0 0.0
2017-Oct-15 05:00N 43°35' E 010°18'0 0.0
2017-Oct-15 04:30N 43°35' E 010°18'0 0.0
2017-Oct-15 04:00N 43°35' E 010°18'0 0.0
2017-Oct-15 03:30N 43°35' E 010°18'0 0.0
2017-Oct-15 03:00N 43°35' E 010°18'0 0.0
2017-Oct-15 02:30N 43°35' E 010°18'0 0.0
2017-Oct-15 02:00N 43°35' E 010°18'0 0.0
2017-Oct-15 01:30N 43°35' E 010°18'0 0.0
2017-Oct-15 01:00N 43°35' E 010°18'0 0.0
2017-Oct-15 00:30N 43°35' E 010°18'0 0.0
2017-Oct-15 00:00N 43°35' E 010°18'0 0.0
2017-Oct-14 23:30N 43°35' E 010°18'0 0.0
2017-Oct-14 23:00N 43°35' E 010°18'0 0.0
2017-Oct-14 22:30N 43°35' E 010°18'0 0.0
2017-Oct-14 22:00N 43°35' E 010°18'0 0.0
2017-Oct-14 21:30N 43°35' E 010°18'0 0.0
2017-Oct-14 21:00N 43°35' E 010°18'0 0.0
2017-Oct-14 20:30N 43°35' E 010°18'0 0.0
2017-Oct-14 19:56N 43°35' E 010°18'0 0.0
2017-Oct-14 19:30N 43°35' E 010°18'0 0.0
2017-Oct-14 19:00N 43°35' E 010°18'0 0.0
2017-Oct-14 18:26N 43°35' E 010°18'0 0.0
2017-Oct-14 18:00N 43°35' E 010°18'0 0.0
2017-Oct-14 17:30N 43°35' E 010°18'0 0.0
2017-Oct-14 16:57N 43°35' E 010°18'0 0.0
2017-Oct-14 16:30N 43°35' E 010°18'0 0.0
2017-Oct-14 15:59N 43°35' E 010°18'0 0.0
2017-Oct-14 15:30N 43°35' E 010°18'0 0.0
2017-Oct-14 15:00N 43°35' E 010°18'0 0.0
2017-Oct-14 14:30N 43°35' E 010°18'0 0.0
2017-Oct-14 14:00N 43°35' E 010°18'0 0.0
2017-Oct-14 13:30N 43°35' E 010°18'0 0.0
2017-Oct-14 13:00N 43°35' E 010°18'0 0.0
2017-Oct-14 12:30N 43°35' E 010°18'0 0.0
2017-Oct-14 12:00N 43°35' E 010°18'0 0.0
2017-Oct-14 11:30N 43°35' E 010°18'0 0.0
2017-Oct-14 10:55N 43°35' E 010°18'0 0.0
2017-Oct-14 10:30N 43°35' E 010°18'0 0.0
2017-Oct-14 10:00N 43°35' E 010°18'0 0.0
2017-Oct-14 09:27N 43°35' E 010°18'1 1.6
2017-Oct-14 09:00N 43°35' E 010°19'0 0.0
2017-Oct-14 08:30N 43°35' E 010°19'0 0.0
2017-Oct-14 08:00N 43°35' E 010°19'0 0.0
2017-Oct-14 07:30N 43°35' E 010°19'0 0.0
2017-Oct-14 07:00N 43°35' E 010°19'0 0.0
2017-Oct-14 06:30N 43°35' E 010°19'0 0.0
2017-Oct-14 06:00N 43°35' E 010°19'0 0.0
2017-Oct-14 05:30N 43°35' E 010°19'0 0.0
2017-Oct-14 05:00N 43°35' E 010°19'0 0.0
2017-Oct-14 04:30N 43°35' E 010°19'0 0.0
2017-Oct-14 04:00N 43°35' E 010°19'0 0.0
2017-Oct-14 03:30N 43°35' E 010°19'0 0.0
2017-Oct-14 03:00N 43°35' E 010°19'0 0.0
2017-Oct-14 02:30N 43°35' E 010°19'0 0.0
2017-Oct-14 02:00N 43°35' E 010°19'0 0.0
2017-Oct-14 01:30N 43°35' E 010°19'0 0.0
2017-Oct-14 00:57N 43°35' E 010°19'0 0.0
2017-Oct-14 00:30N 43°35' E 010°19'0 0.0
2017-Oct-14 00:00N 43°35' E 010°19'0 0.0
2017-Oct-13 23:30N 43°35' E 010°19'0 0.0
2017-Oct-13 22:56N 43°35' E 010°19'0 0.0
2017-Oct-13 22:30N 43°35' E 010°19'0 0.0
2017-Oct-13 22:00N 43°35' E 010°19'0 0.0
2017-Oct-13 21:30N 43°35' E 010°19'0 0.0
2017-Oct-13 21:00N 43°35' E 010°19'0 0.0
2017-Oct-13 20:30N 43°35' E 010°19'0 0.0
2017-Oct-13 20:00N 43°35' E 010°19'0 0.0
2017-Oct-13 19:28N 43°35' E 010°19'0 0.0
2017-Oct-13 19:00N 43°35' E 010°19'0 0.0
2017-Oct-13 18:27N 43°35' E 010°19'0 0.0
2017-Oct-13 17:58N 43°35' E 010°19'0 0.0
2017-Oct-13 17:27N 43°35' E 010°19'0 0.0
2017-Oct-13 17:00N 43°35' E 010°19'0 0.0
2017-Oct-13 16:30N 43°35' E 010°19'0 0.0
2017-Oct-13 16:00N 43°35' E 010°19'0 0.0
2017-Oct-13 15:30N 43°35' E 010°19'0 0.0
2017-Oct-13 15:00N 43°35' E 010°19'0 0.0
2017-Oct-13 14:27N 43°35' E 010°19'0 0.0
2017-Oct-13 14:00N 43°35' E 010°19'0 0.0
2017-Oct-13 13:29N 43°35' E 010°19'0 0.0
2017-Oct-13 13:00N 43°35' E 010°19'0 0.0
2017-Oct-13 12:30N 43°35' E 010°19'0 0.0
2017-Oct-13 12:00N 43°35' E 010°19'0 0.0
2017-Oct-13 11:30N 43°35' E 010°19'0 0.0
2017-Oct-13 11:00N 43°35' E 010°19'0 0.0
2017-Oct-13 10:30N 43°35' E 010°19'1 2.4
2017-Oct-13 10:00N 43°34' E 010°18'1 1.4
2017-Oct-13 09:30N 43°33' E 010°18'0 0.0
2017-Oct-13 09:00N 43°33' E 010°18'0 0.0
2017-Oct-13 08:30N 43°33' E 010°18'0 0.0
2017-Oct-13 08:00N 43°33' E 010°18'0 0.0
2017-Oct-13 07:30N 43°33' E 010°18'0 0.0
2017-Oct-13 07:00N 43°33' E 010°18'0 0.0
2017-Oct-13 06:30N 43°33' E 010°18'0 0.0
2017-Oct-13 06:00N 43°33' E 010°18'0 0.0
2017-Oct-13 05:30N 43°33' E 010°18'0 0.0
2017-Oct-13 05:00N 43°33' E 010°18'0 0.0
2017-Oct-13 04:30N 43°33' E 010°18'0 0.0
2017-Oct-13 04:00N 43°33' E 010°18'0 0.0
2017-Oct-13 03:30N 43°33' E 010°18'0 0.0
2017-Oct-13 03:00N 43°33' E 010°18'0 0.0
2017-Oct-13 02:30N 43°33' E 010°18'0 0.0
2017-Oct-13 02:00N 43°33' E 010°18'0 0.0
2017-Oct-13 01:30N 43°33' E 010°18'0 0.0
2017-Oct-13 01:00N 43°33' E 010°18'0 0.0
2017-Oct-13 00:30N 43°33' E 010°18'0 0.0
2017-Oct-13 00:00N 43°33' E 010°18'0 0.0
2017-Oct-12 23:30N 43°33' E 010°18'0 0.0
2017-Oct-12 22:58N 43°33' E 010°18'0 0.0
2017-Oct-12 22:30N 43°33' E 010°18'0 0.0
2017-Oct-12 22:00N 43°33' E 010°18'0 0.0
2017-Oct-12 21:28N 43°33' E 010°18'0 0.0
2017-Oct-12 21:00N 43°33' E 010°18'0 0.0
2017-Oct-12 20:30N 43°33' E 010°18'0 0.0
2017-Oct-12 19:59N 43°33' E 010°18'0 0.0
2017-Oct-12 19:30N 43°33' E 010°18'0 0.0
2017-Oct-12 19:00N 43°33' E 010°18'0 0.0
2017-Oct-12 18:30N 43°33' E 010°18'0 0.0
2017-Oct-12 18:00N 43°33' E 010°18'0 0.0
2017-Oct-12 17:26N 43°33' E 010°18'0 0.0
2017-Oct-12 17:00N 43°33' E 010°18'0 0.0
2017-Oct-12 16:30N 43°33' E 010°18'0 0.0
2017-Oct-12 15:58N 43°33' E 010°18'0 0.0
2017-Oct-12 15:27N 43°33' E 010°18'1 2.1
2017-Oct-12 15:00N 43°34' E 010°18'0 0.0
2017-Oct-12 14:30N 43°34' E 010°18'0 0.0
2017-Oct-12 14:00N 43°34' E 010°18'1 0.1
2017-Oct-12 07:32N 43°33' E 010°18'0 0.3
2017-Oct-12 07:30N 43°33' E 010°18'0 0.0
2017-Oct-12 06:57N 43°33' E 010°18'0 0.0
2017-Oct-12 06:30N 43°33' E 010°18'0 0.0
2017-Oct-12 06:00N 43°33' E 010°18'0 0.0
2017-Oct-12 05:30N 43°33' E 010°18'0 0.0
2017-Oct-12 05:00N 43°33' E 010°18'0 0.0
2017-Oct-12 04:30N 43°33' E 010°18'0 0.0
2017-Oct-12 04:00N 43°33' E 010°18'0 0.0
2017-Oct-12 03:30N 43°33' E 010°18'0 0.0
2017-Oct-12 03:00N 43°33' E 010°18'0 0.0
2017-Oct-12 02:30N 43°33' E 010°18'0 0.0
2017-Oct-12 02:00N 43°33' E 010°18'0 0.0
2017-Oct-12 01:30N 43°33' E 010°18'0 0.0
2017-Oct-12 01:00N 43°33' E 010°18'0 0.0
2017-Oct-12 00:30N 43°33' E 010°18'0 0.0
2017-Oct-11 23:59N 43°33' E 010°18'0 0.0
2017-Oct-11 23:30N 43°33' E 010°18'0 0.0
2017-Oct-11 23:00N 43°33' E 010°18'0 0.0
2017-Oct-11 22:30N 43°33' E 010°18'0 0.0
2017-Oct-11 22:00N 43°33' E 010°18'0 0.0
2017-Oct-11 21:30N 43°33' E 010°18'0 0.0
2017-Oct-11 21:00N 43°33' E 010°18'0 0.0
2017-Oct-11 20:30N 43°33' E 010°18'0 0.0
2017-Oct-11 20:00N 43°33' E 010°18'0 0.0
2017-Oct-11 19:30N 43°33' E 010°18'0 0.0
2017-Oct-11 19:00N 43°33' E 010°18'0 0.0
2017-Oct-11 18:30N 43°33' E 010°18'0 0.0
2017-Oct-11 18:00N 43°33' E 010°18'0 0.0
2017-Oct-11 17:30N 43°33' E 010°18'0 0.0
2017-Oct-11 17:00N 43°33' E 010°18'0 0.0
2017-Oct-11 00:00N 43°33' E 010°18'0 0.0
2017-Oct-10 23:30N 43°33' E 010°18'0 0.0
2017-Oct-10 23:00N 43°33' E 010°18'0 0.0
2017-Oct-10 22:30N 43°33' E 010°18'0 0.0
2017-Oct-10 22:00N 43°33' E 010°18'1 1.5
2017-Oct-10 21:30N 43°34' E 010°18'1 2.1
2017-Oct-10 21:00N 43°35' E 010°19'0 0.0
2017-Oct-10 20:30N 43°35' E 010°19'0 0.0
2017-Oct-10 20:00N 43°35' E 010°19'0 0.0
2017-Oct-10 19:30N 43°35' E 010°19'0 0.0
2017-Oct-10 19:00N 43°35' E 010°19'0 0.0
2017-Oct-10 18:30N 43°35' E 010°19'0 0.0
2017-Oct-10 18:00N 43°35' E 010°19'0 0.2
2017-Oct-10 17:27N 43°35' E 010°19'0 0.0
2017-Oct-10 16:59N 43°35' E 010°19'0 0.0
2017-Oct-10 16:26N 43°35' E 010°19'0 0.0
2017-Oct-10 16:00N 43°35' E 010°19'0 0.2
2017-Oct-10 15:30N 43°35' E 010°19'0 0.0
2017-Oct-10 15:00N 43°35' E 010°19'0 0.1
2017-Oct-10 14:00N 43°35' E 010°19'2 4.2
2017-Oct-10 13:30N 43°33' E 010°18'0 0.9
2017-Oct-10 13:00N 43°33' E 010°18'0 0.0
2017-Oct-10 12:30N 43°33' E 010°18'0 0.0
2017-Oct-10 12:00N 43°33' E 010°18'0 0.0
2017-Oct-10 11:30N 43°33' E 010°18'0 0.0
2017-Oct-10 11:00N 43°33' E 010°18'0 0.0
2017-Oct-10 10:30N 43°33' E 010°18'0 0.0
2017-Oct-10 10:00N 43°33' E 010°18'0 0.0
2017-Oct-10 09:30N 43°33' E 010°18'0 0.0
2017-Oct-10 09:00N 43°33' E 010°18'0 0.0
2017-Oct-10 08:30N 43°33' E 010°18'0 0.9
2017-Oct-10 08:00N 43°33' E 010°18'2 3.3
2017-Oct-10 07:28N 43°35' E 010°19'0 0.0
2017-Oct-10 07:00N 43°35' E 010°19'0 0.0
2017-Oct-10 06:30N 43°35' E 010°19'0 0.0
2017-Oct-10 06:00N 43°35' E 010°19'0 0.7
2017-Oct-10 05:28N 43°34' E 010°19'1 2.4
2017-Oct-10 05:00N 43°33' E 010°18'0 0.0
2017-Oct-10 04:30N 43°33' E 010°18'0 0.0
2017-Oct-10 04:00N 43°33' E 010°18'0 0.0
2017-Oct-10 03:30N 43°33' E 010°18'0 0.0
2017-Oct-10 03:00N 43°33' E 010°18'0 0.0
2017-Oct-10 02:30N 43°33' E 010°18'0 0.0
2017-Oct-10 02:00N 43°33' E 010°18'0 0.0
2017-Oct-10 01:30N 43°33' E 010°18'0 0.0
2017-Oct-10 01:00N 43°33' E 010°18'0 0.0
2017-Oct-10 00:30N 43°33' E 010°18'0 0.0
2017-Oct-10 00:00N 43°33' E 010°18'0 0.0
2017-Oct-09 23:30N 43°33' E 010°18'0 0.0
2017-Oct-09 23:00N 43°33' E 010°18'0 0.0
2017-Oct-09 22:30N 43°33' E 010°18'0 0.0
2017-Oct-09 22:00N 43°33' E 010°18'0 0.0
2017-Oct-09 21:30N 43°33' E 010°18'0 0.0
2017-Oct-09 21:00N 43°33' E 010°18'0 0.0
2017-Oct-09 20:30N 43°33' E 010°18'0 0.0
2017-Oct-09 20:00N 43°33' E 010°18'1 2.8
2017-Oct-09 19:30N 43°35' E 010°18'0 0.0
2017-Oct-09 19:00N 43°35' E 010°18'0 0.0
2017-Oct-09 18:30N 43°35' E 010°18'0 0.0
2017-Oct-09 18:00N 43°35' E 010°18'0 1.0
2017-Oct-09 17:30N 43°34' E 010°18'0 0.0
2017-Oct-09 17:00N 43°34' E 010°18'0 0.0
2017-Oct-09 16:30N 43°34' E 010°18'0 0.1
2017-Oct-09 16:01N 43°34' E 010°18'0 0.5
2017-Oct-09 15:30N 43°34' E 010°19'0 0.0
2017-Oct-09 15:00N 43°34' E 010°19'0 0.0
2017-Oct-09 14:30N 43°34' E 010°19'0 0.0
2017-Oct-09 14:00N 43°34' E 010°19'0 0.0
2017-Oct-09 13:30N 43°34' E 010°19'1 1.6
2017-Oct-09 13:00N 43°35' E 010°19'0 0.0
2017-Oct-09 12:30N 43°35' E 010°19'0 0.0
2017-Oct-09 12:00N 43°35' E 010°19'0 0.0
2017-Oct-09 11:30N 43°35' E 010°19'0 0.0
2017-Oct-09 11:00N 43°35' E 010°19'0 0.0
2017-Oct-09 10:30N 43°35' E 010°19'0 0.0
2017-Oct-09 10:00N 43°35' E 010°19'0 0.0
2017-Oct-09 09:30N 43°35' E 010°19'0 0.0
2017-Oct-09 09:00N 43°35' E 010°19'0 0.0
2017-Oct-09 08:30N 43°35' E 010°19'0 0.0
2017-Oct-09 08:00N 43°35' E 010°19'0 0.0
2017-Oct-09 07:30N 43°35' E 010°19'0 0.0
2017-Oct-09 06:56N 43°35' E 010°19'0 0.3
2017-Oct-09 06:28N 43°35' E 010°19'2 3.9
2017-Oct-09 06:00N 43°33' E 010°18'0 0.0
2017-Oct-09 05:30N 43°33' E 010°18'0 0.0
2017-Oct-09 05:00N 43°33' E 010°18'0 0.0
2017-Oct-09 04:30N 43°33' E 010°18'0 0.0
2017-Oct-09 03:59N 43°33' E 010°18'0 0.0
2017-Oct-09 03:30N 43°33' E 010°18'0 0.0
2017-Oct-09 02:59N 43°33' E 010°18'0 0.0
2017-Oct-09 02:30N 43°33' E 010°18'0 0.0
2017-Oct-09 01:58N 43°33' E 010°18'0 0.0
2017-Oct-09 01:30N 43°33' E 010°18'0 0.0
2017-Oct-09 00:59N 43°33' E 010°18'0 0.0
2017-Oct-09 00:30N 43°33' E 010°18'  

Dump ship's entire track history